Time;durP1;ratioP1;P1;durP2;ratioP2;P2;SDS_P1;SDS_P2;PMS_P1;PMS_P2;Temp;Humidity;BMP_temperature;BMP_pressure;BME280_temperature;BME280_humidity;BME280_pressure;Samples;Min_cycle;Max_cycle;Signal;HPM_P1;HPM_P2
2021/07/04 00:00:46;;;;;;;5.67;5.17;;;19.30;99.90;;;;;;5085602;28;20279;-59
2021/07/04 00:03:13;;;;;;;4.93;4.47;;;19.30;99.90;;;;;;5088654;28;20207;-58
2021/07/04 00:05:44;;;;;;;5.43;5.03;;;19.30;99.90;;;;;;5082260;28;20206;-58
2021/07/04 00:08:14;;;;;;;5.90;5.18;;;19.30;99.90;;;;;;5085521;28;20204;-57
2021/07/04 00:10:50;;;;;;;5.32;4.82;;;19.20;99.90;;;;;;5084745;28;20285;-59
2021/07/04 00:13:17;;;;;;;5.47;5.07;;;19.10;99.90;;;;;;5087907;28;20188;-57
2021/07/04 00:15:44;;;;;;;6.38;5.47;;;19.00;99.90;;;;;;5084239;28;20213;-58
2021/07/04 00:18:17;;;;;;;5.90;5.40;;;19.00;99.90;;;;;;5079450;28;20204;-58
2021/07/04 00:20:43;;;;;;;5.47;4.97;;;19.10;99.90;;;;;;5083273;28;20272;-58
2021/07/04 00:23:10;;;;;;;5.15;4.60;;;19.10;99.90;;;;;;5076942;28;20180;-58
2021/07/04 00:25:37;;;;;;;8.15;5.43;;;19.10;99.90;;;;;;5088015;28;20184;-58
2021/07/04 00:28:03;;;;;;;5.95;5.15;;;19.00;99.90;;;;;;5081998;28;20209;-57
2021/07/04 00:30:29;;;;;;;5.43;4.93;;;19.00;99.90;;;;;;5087717;28;20195;-57
2021/07/04 00:32:55;;;;;;;5.77;5.23;;;19.00;99.90;;;;;;5083399;28;20271;-58
2021/07/04 00:35:22;;;;;;;6.23;5.63;;;18.90;99.90;;;;;;5082852;28;20215;-59
2021/07/04 00:37:49;;;;;;;6.38;5.88;;;18.80;99.90;;;;;;5084720;28;20180;-57
2021/07/04 00:40:15;;;;;;;5.65;5.15;;;18.80;99.90;;;;;;5081721;28;20189;-57
2021/07/04 00:42:41;;;;;;;5.78;5.28;;;18.80;99.90;;;;;;5086310;28;20180;-58
2021/07/04 00:45:11;;;;;;;5.47;5.07;;;18.70;99.90;;;;;;5091247;28;20671;-58
2021/07/04 00:47:37;;;;;;;5.43;4.95;;;18.70;99.90;;;;;;5081041;28;20658;-58
2021/07/04 00:50:05;;;;;;;5.60;5.20;;;18.80;99.90;;;;;;5078261;28;20291;-58
2021/07/04 00:52:31;;;;;;;4.97;4.55;;;18.80;99.90;;;;;;5080680;28;20438;-58
2021/07/04 00:54:57;;;;;;;5.72;5.22;;;18.80;99.90;;;;;;5082186;28;20614;-58
2021/07/04 00:57:23;;;;;;;5.20;4.80;;;18.90;99.90;;;;;;5088038;28;20253;-57
2021/07/04 00:59:48;;;;;;;5.50;5.00;;;18.90;99.90;;;;;;5077313;28;20536;-56
2021/07/04 01:02:14;;;;;;;5.80;5.30;;;19.00;99.90;;;;;;5077093;28;20439;-58
2021/07/04 01:04:40;;;;;;;6.13;5.63;;;18.90;99.90;;;;;;5088898;28;20188;-57
2021/07/04 01:07:06;;;;;;;6.00;5.40;;;18.80;99.90;;;;;;5086147;28;20599;-58
2021/07/04 01:09:32;;;;;;;5.97;5.45;;;18.80;99.90;;;;;;5078398;28;20252;-57
2021/07/04 01:11:57;;;;;;;6.00;5.50;;;18.80;99.90;;;;;;5085444;28;20212;-58
2021/07/04 01:14:24;;;;;;;5.83;5.33;;;18.70;99.90;;;;;;5088811;28;20204;-58
2021/07/04 01:16:49;;;;;;;6.47;5.88;;;18.70;99.90;;;;;;5081954;28;20184;-58
2021/07/04 01:19:17;;;;;;;6.13;5.53;;;18.60;99.90;;;;;;5079487;28;20262;-57
2021/07/04 01:21:44;;;;;;;7.10;6.40;;;18.60;99.90;;;;;;5082040;28;20240;-55
2021/07/04 01:24:11;;;;;;;6.88;5.97;;;18.50;99.90;;;;;;5078421;28;20266;-58
2021/07/04 01:26:38;;;;;;;6.20;5.70;;;18.40;99.90;;;;;;5080774;28;20613;-57
2021/07/04 01:29:05;;;;;;;6.78;6.15;;;18.40;99.90;;;;;;5082424;28;20201;-60
2021/07/04 01:31:31;;;;;;;5.82;5.15;;;18.30;99.90;;;;;;5080902;28;20217;-58
2021/07/04 01:33:57;;;;;;;5.75;5.25;;;18.30;99.90;;;;;;5079995;28;20213;-57
2021/07/04 01:36:23;;;;;;;6.80;6.20;;;18.40;99.90;;;;;;5080367;28;20541;-59
2021/07/04 01:38:49;;;;;;;6.95;6.25;;;18.40;99.90;;;;;;5080870;28;20207;-58
2021/07/04 01:41:15;;;;;;;6.50;5.90;;;18.30;99.90;;;;;;5090093;28;20689;-58
2021/07/04 01:43:41;;;;;;;6.03;5.40;;;18.40;99.90;;;;;;5087856;28;20437;-57
2021/07/04 01:46:06;;;;;;;6.57;5.90;;;18.40;99.90;;;;;;5083902;28;20442;-57
2021/07/04 01:48:32;;;;;;;6.70;6.10;;;18.30;99.90;;;;;;5089124;28;20204;-56
2021/07/04 01:50:58;;;;;;;7.37;5.80;;;18.20;99.90;;;;;;5089588;28;20763;-57
2021/07/04 01:53:24;;;;;;;5.68;5.18;;;18.20;99.90;;;;;;5087909;28;20641;-57
2021/07/04 01:55:50;;;;;;;6.23;5.63;;;18.20;99.90;;;;;;5077694;28;20212;-58
2021/07/04 01:58:15;;;;;;;6.20;5.67;;;18.20;99.90;;;;;;5084913;28;20212;-58
2021/07/04 02:00:44;;;;;;;6.70;6.10;;;18.30;99.90;;;;;;5086903;28;20435;-58
2021/07/04 02:03:11;;;;;;;6.57;5.95;;;18.30;99.90;;;;;;5079042;28;20187;-57
2021/07/04 02:05:37;;;;;;;6.25;5.65;;;18.30;99.90;;;;;;5088218;28;20184;-58
2021/07/04 02:08:03;;;;;;;6.47;5.97;;;18.30;99.90;;;;;;5078629;28;20196;-57
2021/07/04 02:10:35;;;;;;;7.07;6.47;;;18.30;99.90;;;;;;5081751;28;20223;-59
2021/07/04 02:13:02;;;;;;;7.13;6.20;;;18.10;99.90;;;;;;5083396;28;20870;-58
2021/07/04 02:15:31;;;;;;;6.03;5.53;;;18.00;99.90;;;;;;5082118;28;20661;-58
2021/07/04 02:18:01;;;;;;;7.03;6.43;;;18.00;99.90;;;;;;5075901;28;22291;-58
2021/07/04 02:20:33;;;;;;;9.40;6.05;;;17.90;99.90;;;;;;5082221;28;20230;-58
2021/07/04 02:23:12;;;;;;;6.40;5.90;;;17.90;99.90;;;;;;5079698;28;20184;-57
2021/07/04 02:25:39;;;;;;;6.75;6.00;;;17.90;99.90;;;;;;5086190;28;20191;-57
2021/07/04 02:28:07;;;;;;;7.30;6.30;;;17.80;99.90;;;;;;5083789;28;20207;-58
2021/07/04 02:30:34;;;;;;;6.43;5.82;;;17.80;99.90;;;;;;5075656;28;20274;-58
2021/07/04 02:33:02;;;;;;;7.43;6.72;;;17.50;99.90;;;;;;5083300;28;20261;-58
2021/07/04 02:35:30;;;;;;;6.65;6.15;;;17.70;99.90;;;;;;5089141;28;20956;-58
2021/07/04 02:37:56;;;;;;;7.25;6.65;;;17.60;99.90;;;;;;5079226;28;20250;-58
2021/07/04 02:40:22;;;;;;;6.18;5.57;;;17.50;99.90;;;;;;5079460;28;20176;-59
2021/07/04 02:42:49;;;;;;;7.15;6.45;;;17.50;99.90;;;;;;5083344;28;20188;-58
2021/07/04 02:45:14;;;;;;;7.03;6.40;;;17.40;99.90;;;;;;5074910;28;20181;-58
2021/07/04 02:47:40;;;;;;;6.27;5.70;;;17.30;99.90;;;;;;5075536;28;20271;-57
2021/07/04 02:50:07;;;;;;;6.93;6.22;;;17.50;99.90;;;;;;5079696;28;20196;-59
2021/07/04 02:52:33;;;;;;;6.97;6.45;;;17.50;99.90;;;;;;5082750;28;20196;-59
2021/07/04 02:54:59;;;;;;;7.23;6.50;;;17.40;99.90;;;;;;5085981;28;20208;-57
2021/07/04 02:57:25;;;;;;;7.93;7.23;;;17.40;99.90;;;;;;5074598;28;20435;-58
2021/07/04 02:59:51;;;;;;;7.47;6.77;;;17.60;99.90;;;;;;5080501;28;20196;-58
2021/07/04 03:02:16;;;;;;;6.73;6.13;;;17.60;99.90;;;;;;5085799;28;20176;-58
2021/07/04 03:04:42;;;;;;;7.27;6.47;;;17.50;99.90;;;;;;5087136;28;20445;-58
2021/07/04 03:07:08;;;;;;;7.57;6.87;;;17.50;99.90;;;;;;5081954;28;20187;-58
2021/07/04 03:09:33;;;;;;;8.07;7.38;;;17.70;99.90;;;;;;5076685;28;20212;-58
2021/07/04 03:11:59;;;;;;;7.23;6.50;;;17.60;99.90;;;;;;5078329;28;20676;-58
2021/07/04 03:14:25;;;;;;;7.40;6.37;;;17.80;99.90;;;;;;5084741;28;20214;-58
2021/07/04 03:16:51;;;;;;;6.73;6.23;;;17.60;99.90;;;;;;5083960;28;20271;-58
2021/07/04 03:19:16;;;;;;;6.82;6.22;;;17.60;99.90;;;;;;5078891;28;20344;-58
2021/07/04 03:21:42;;;;;;;7.10;6.20;;;17.70;99.90;;;;;;5078400;28;20310;-58
2021/07/04 03:24:08;;;;;;;6.60;5.97;;;17.60;99.90;;;;;;5077988;28;20192;-58
2021/07/04 03:26:34;;;;;;;6.90;6.40;;;17.70;99.90;;;;;;5086427;28;20200;-58
2021/07/04 03:29:00;;;;;;;6.68;6.10;;;17.60;99.90;;;;;;5085158;28;20219;-58
2021/07/04 03:31:25;;;;;;;7.57;6.77;;;17.60;99.90;;;;;;5087759;28;20199;-58
2021/07/04 03:33:51;;;;;;;6.80;6.10;;;17.60;99.90;;;;;;5084708;28;20204;-58
2021/07/04 03:36:17;;;;;;;6.77;6.10;;;17.60;99.90;;;;;;5075432;28;20220;-59
2021/07/04 03:38:42;;;;;;;9.10;6.50;;;17.60;99.90;;;;;;5087279;28;20265;-59
2021/07/04 03:41:08;;;;;;;6.77;6.17;;;17.70;99.90;;;;;;5083873;28;20184;-58
2021/07/04 03:43:34;;;;;;;7.53;6.90;;;17.90;99.90;;;;;;5082764;28;20238;-56
2021/07/04 03:46:00;;;;;;;7.40;6.70;;;17.70;99.90;;;;;;5083441;28;20191;-58
2021/07/04 03:48:26;;;;;;;6.55;5.97;;;17.80;99.90;;;;;;5075606;28;20235;-59
2021/07/04 03:50:52;;;;;;;6.87;6.23;;;17.60;99.90;;;;;;5081899;28;20212;-58
2021/07/04 03:53:17;;;;;;;7.10;6.50;;;17.70;99.90;;;;;;5076167;28;20194;-57
2021/07/04 03:55:43;;;;;;;7.50;6.23;;;17.70;99.90;;;;;;5082134;28;20290;-58
2021/07/04 03:58:09;;;;;;;6.70;6.10;;;17.70;99.90;;;;;;5075543;28;20208;-58
2021/07/04 04:00:36;;;;;;;8.40;6.22;;;17.70;99.90;;;;;;5074539;28;20246;-59
2021/07/04 04:03:01;;;;;;;6.90;6.40;;;17.80;99.90;;;;;;5074706;28;20177;-59
2021/07/04 04:05:27;;;;;;;7.07;6.37;;;17.60;99.90;;;;;;5081478;28;20188;-59
2021/07/04 04:07:52;;;;;;;7.17;6.47;;;17.90;99.90;;;;;;5083269;28;20187;-60
2021/07/04 04:10:18;;;;;;;7.33;6.63;;;18.00;99.90;;;;;;5080406;28;20230;-58
2021/07/04 04:12:44;;;;;;;7.23;6.53;;;18.10;99.90;;;;;;5073503;28;20190;-60
2021/07/04 04:15:12;;;;;;;7.03;6.43;;;18.10;99.90;;;;;;5074774;28;20439;-60
2021/07/04 04:17:38;;;;;;;6.45;5.85;;;18.20;99.90;;;;;;5090361;28;20675;-60
2021/07/04 04:20:05;;;;;;;6.65;6.05;;;18.40;99.90;;;;;;5072019;28;20197;-60
2021/07/04 04:22:31;;;;;;;6.90;6.25;;;18.30;99.90;;;;;;5073902;28;20586;-60
2021/07/04 04:24:57;;;;;;;7.10;6.40;;;18.40;99.90;;;;;;5076616;28;20195;-61
2021/07/04 04:27:22;;;;;;;6.23;5.73;;;18.50;99.90;;;;;;5073572;28;20191;-59
2021/07/04 04:29:48;;;;;;;6.50;6.00;;;18.60;99.90;;;;;;5075878;28;20200;-59
2021/07/04 04:32:15;;;;;;;6.10;5.60;;;18.80;99.90;;;;;;5077026;28;20533;-60
2021/07/04 04:34:41;;;;;;;7.05;6.45;;;18.80;99.90;;;;;;5077411;28;20284;-59
2021/07/04 04:37:07;;;;;;;6.82;6.20;;;18.80;99.90;;;;;;5076475;28;20185;-59
2021/07/04 04:39:33;;;;;;;6.53;5.93;;;18.90;99.90;;;;;;5079747;28;20205;-57
2021/07/04 04:41:59;;;;;;;6.40;5.80;;;18.90;99.90;;;;;;5076473;28;20442;-58
2021/07/04 04:44:25;;;;;;;6.43;5.82;;;19.00;99.90;;;;;;5075113;28;20568;-58
2021/07/04 04:46:51;;;;;;;6.40;5.90;;;19.00;99.90;;;;;;5078958;28;20184;-58
2021/07/04 04:49:16;;;;;;;6.50;6.00;;;19.00;99.90;;;;;;5081986;28;20254;-58
2021/07/04 04:51:42;;;;;;;5.43;5.03;;;19.10;99.90;;;;;;5078825;28;20449;-60
2021/07/04 04:54:08;;;;;;;6.83;6.13;;;19.10;99.90;;;;;;5087507;28;20213;-59
2021/07/04 04:56:34;;;;;;;6.10;5.53;;;19.10;99.90;;;;;;5079912;28;20275;-58
2021/07/04 04:59:00;;;;;;;8.68;6.15;;;19.00;99.90;;;;;;5080547;28;20227;-58
2021/07/04 05:01:28;;;;;;;6.83;6.33;;;19.10;99.90;;;;;;5078110;28;20658;-58
2021/07/04 05:03:54;;;;;;;7.68;6.32;;;19.10;99.90;;;;;;5073803;28;20466;-59
2021/07/04 05:06:20;;;;;;;5.88;5.35;;;19.10;99.90;;;;;;5077863;28;20267;-58
2021/07/04 05:08:45;;;;;;;6.50;5.90;;;19.20;99.90;;;;;;5074025;28;20291;-58
2021/07/04 05:11:11;;;;;;;6.50;5.90;;;19.20;99.90;;;;;;5083974;28;20188;-58
2021/07/04 05:13:38;;;;;;;7.93;6.40;;;19.10;99.90;;;;;;5078798;28;20207;-58
2021/07/04 05:16:05;;;;;;;6.25;5.68;;;19.10;99.90;;;;;;5078223;28;20211;-57
2021/07/04 05:18:32;;;;;;;7.53;6.05;;;19.20;99.90;;;;;;5075226;28;20583;-57
2021/07/04 05:20:59;;;;;;;5.82;5.35;;;19.10;99.90;;;;;;5073079;28;20206;-57
2021/07/04 05:23:24;;;;;;;6.80;6.20;;;19.20;99.90;;;;;;5080154;28;20173;-56
2021/07/04 05:25:50;;;;;;;6.23;5.73;;;19.10;99.90;;;;;;5077277;28;20265;-59
2021/07/04 05:28:17;;;;;;;7.40;6.40;;;19.30;99.90;;;;;;5076160;28;20674;-60
2021/07/04 05:30:42;;;;;;;6.30;5.70;;;19.40;99.90;;;;;;5070735;28;20185;-59
2021/07/04 05:33:08;;;;;;;6.20;5.70;;;19.50;99.90;;;;;;5074364;28;20234;-56
2021/07/04 05:35:34;;;;;;;6.17;5.57;;;19.70;99.90;;;;;;5083407;28;20211;-56
2021/07/04 05:38:00;;;;;;;6.55;5.95;;;19.70;99.90;;;;;;5081088;28;20210;-58
2021/07/04 05:40:26;;;;;;;5.50;5.10;;;19.90;99.90;;;;;;5081820;28;20275;-58
2021/07/04 05:42:53;;;;;;;7.00;6.37;;;20.00;99.90;;;;;;5083253;28;20176;-57
2021/07/04 05:45:26;;;;;;;6.43;5.85;;;20.00;99.90;;;;;;5079689;28;20538;-58
2021/07/04 05:47:52;;;;;;;6.55;6.05;;;20.10;99.90;;;;;;5072248;28;20246;-58
2021/07/04 05:50:19;;;;;;;5.55;5.10;;;20.00;99.90;;;;;;5075832;28;20188;-60
2021/07/04 05:52:49;;;;;;;5.47;4.97;;;20.10;99.90;;;;;;5079257;28;20195;-56
2021/07/04 05:55:15;;;;;;;5.93;5.45;;;20.30;99.90;;;;;;5076760;28;20627;-56
2021/07/04 05:57:40;;;;;;;6.37;5.77;;;20.40;99.90;;;;;;5074851;28;20264;-55
2021/07/04 06:00:09;;;;;;;5.67;5.17;;;20.70;99.90;;;;;;5072917;28;20203;-56
2021/07/04 06:02:35;;;;;;;5.20;4.80;;;20.60;99.90;;;;;;5078684;28;20267;-56
2021/07/04 06:05:00;;;;;;;6.73;6.23;;;20.60;99.90;;;;;;5081003;28;20270;-54
2021/07/04 06:07:26;;;;;;;6.40;5.77;;;20.60;99.90;;;;;;5085223;28;20676;-55
2021/07/04 06:09:52;;;;;;;6.17;5.67;;;20.70;99.90;;;;;;5076605;28;20295;-56
2021/07/04 06:12:17;;;;;;;6.23;5.60;;;20.60;99.90;;;;;;5074854;28;20265;-56
2021/07/04 06:14:43;;;;;;;6.10;5.60;;;20.60;99.90;;;;;;5074485;28;20249;-55
2021/07/04 06:17:10;;;;;;;7.60;7.00;;;20.90;99.90;;;;;;5084444;28;20188;-55
2021/07/04 06:19:36;;;;;;;5.70;5.20;;;20.90;99.90;;;;;;5077354;28;20265;-57
2021/07/04 06:22:02;;;;;;;6.23;5.73;;;21.10;99.90;;;;;;5075612;28;20597;-55
2021/07/04 06:24:28;;;;;;;5.68;5.18;;;21.20;99.90;;;;;;5078943;28;20200;-56
2021/07/04 06:26:53;;;;;;;6.50;4.87;;;21.30;99.90;;;;;;5079498;28;20670;-56
2021/07/04 06:29:19;;;;;;;5.47;5.07;;;21.40;99.90;;;;;;5076104;28;20546;-55
2021/07/04 06:31:45;;;;;;;5.90;5.30;;;21.50;99.90;;;;;;5082327;28;20884;-55
2021/07/04 06:34:10;;;;;;;6.47;5.93;;;21.50;99.90;;;;;;5078960;28;20204;-56
2021/07/04 06:36:36;;;;;;;5.77;5.27;;;21.50;99.90;;;;;;5079032;28;20211;-55
2021/07/04 06:39:02;;;;;;;6.53;5.93;;;21.50;99.90;;;;;;5081158;28;20226;-55
2021/07/04 06:41:28;;;;;;;5.93;5.43;;;21.60;99.90;;;;;;5078488;28;20180;-55
2021/07/04 06:43:53;;;;;;;5.37;4.97;;;21.70;99.90;;;;;;5082675;28;20192;-54
2021/07/04 06:46:19;;;;;;;5.30;4.80;;;21.90;99.90;;;;;;5081095;28;20430;-54
2021/07/04 06:48:45;;;;;;;5.87;5.47;;;22.00;99.90;;;;;;5077819;28;20366;-55
2021/07/04 06:51:11;;;;;;;5.30;4.80;;;22.20;99.90;;;;;;5077746;28;20195;-54
2021/07/04 06:53:36;;;;;;;5.13;4.67;;;22.40;99.90;;;;;;5077086;28;20591;-55
2021/07/04 06:56:03;;;;;;;6.00;5.50;;;22.70;99.90;;;;;;5084236;28;20484;-55
2021/07/04 06:58:29;;;;;;;6.07;5.63;;;23.00;99.90;;;;;;5082944;28;20200;-57
2021/07/04 07:00:55;;;;;;;6.07;5.30;;;23.10;99.90;;;;;;5086165;28;20426;-57
2021/07/04 07:03:21;;;;;;;5.10;4.70;;;23.30;99.90;;;;;;5082306;28;20439;-57
2021/07/04 07:05:47;;;;;;;5.53;4.97;;;23.70;99.90;;;;;;5079560;28;20791;-59
2021/07/04 07:08:12;;;;;;;5.33;4.83;;;23.80;99.90;;;;;;5086602;28;20206;-58
2021/07/04 07:10:38;;;;;;;6.07;5.20;;;23.70;99.90;;;;;;5085871;28;20192;-57
2021/07/04 07:13:04;;;;;;;5.83;5.33;;;23.40;99.90;;;;;;5081264;28;20221;-57
2021/07/04 07:15:30;;;;;;;6.20;5.03;;;23.30;99.90;;;;;;5083719;28;20212;-57
2021/07/04 07:17:56;;;;;;;5.50;5.10;;;23.30;99.90;;;;;;5079283;28;20763;-56
2021/07/04 07:20:22;;;;;;;5.40;5.00;;;23.00;99.90;;;;;;5083877;28;20176;-58
2021/07/04 07:22:47;;;;;;;5.57;5.07;;;23.30;99.90;;;;;;5080496;28;20880;-57
2021/07/04 07:25:13;;;;;;;5.60;5.20;;;25.00;99.90;;;;;;5073780;28;20610;-56
2021/07/04 07:27:39;;;;;;;4.90;4.60;;;27.10;96.00;;;;;;5074444;28;20198;-56
2021/07/04 07:30:08;;;;;;;5.53;5.13;;;28.60;90.30;;;;;;5080660;28;20455;-55
2021/07/04 07:32:35;;;;;;;5.37;4.87;;;29.50;86.20;;;;;;5080953;28;21020;-57
2021/07/04 07:35:02;;;;;;;5.40;4.90;;;29.50;84.50;;;;;;5076727;28;20473;-55
2021/07/04 07:37:27;;;;;;;5.23;4.83;;;28.30;85.70;;;;;;5080450;28;20452;-57
2021/07/04 07:39:53;;;;;;;5.63;5.23;;;26.80;89.30;;;;;;5080401;28;21054;-56
2021/07/04 07:42:19;;;;;;;6.17;5.67;;;26.50;90.30;;;;;;5068927;28;20184;-57
2021/07/04 07:44:45;;;;;;;6.03;5.07;;;26.10;90.80;;;;;;5078333;28;20555;-56
2021/07/04 07:47:10;;;;;;;5.23;4.80;;;26.30;91.50;;;;;;5084088;28;20437;-56
2021/07/04 07:49:36;;;;;;;5.70;5.20;;;26.40;91.20;;;;;;5081023;28;20454;-57
2021/07/04 07:52:04;;;;;;;5.20;4.80;;;26.50;90.90;;;;;;5071655;28;20708;-59
2021/07/04 07:54:30;;;;;;;7.50;5.30;;;26.80;90.60;;;;;;5074224;28;20486;-59
2021/07/04 07:56:57;;;;;;;6.10;5.60;;;26.70;90.20;;;;;;5080661;28;20450;-58
2021/07/04 07:59:23;;;;;;;5.27;4.87;;;26.00;91.50;;;;;;5081342;28;20460;-58
2021/07/04 08:01:48;;;;;;;6.00;5.50;;;26.50;91.80;;;;;;5078200;28;20440;-59
2021/07/04 08:04:14;;;;;;;6.10;5.50;;;26.80;90.20;;;;;;5074907;28;20213;-60
2021/07/04 08:06:43;;;;;;;6.10;4.87;;;26.30;91.00;;;;;;5076361;28;20880;-58
2021/07/04 08:09:09;;;;;;;6.00;5.50;;;26.30;91.90;;;;;;5071160;28;20542;-57
2021/07/04 08:11:35;;;;;;;6.30;5.80;;;25.90;92.30;;;;;;5083460;28;20529;-58
2021/07/04 08:14:00;;;;;;;5.40;5.00;;;26.40;92.20;;;;;;5083384;28;20184;-57
2021/07/04 08:16:26;;;;;;;5.83;5.33;;;26.40;92.00;;;;;;5082608;28;20276;-58
2021/07/04 08:18:52;;;;;;;5.97;5.47;;;26.70;91.00;;;;;;5085102;28;20193;-57
2021/07/04 08:21:17;;;;;;;5.13;4.73;;;26.70;91.20;;;;;;5076020;28;20177;-58
2021/07/04 08:23:43;;;;;;;5.50;5.10;;;26.90;90.70;;;;;;5087626;28;20657;-57
2021/07/04 08:26:09;;;;;;;6.90;5.10;;;26.80;90.50;;;;;;5083988;28;20642;-58
2021/07/04 08:28:36;;;;;;;5.57;5.17;;;27.10;90.90;;;;;;5076539;28;20814;-57
2021/07/04 08:31:02;;;;;;;6.87;6.27;;;27.30;89.70;;;;;;5074803;28;20184;-58
2021/07/04 08:33:27;;;;;;;5.97;5.47;;;26.90;89.70;;;;;;5075162;28;20523;-57
2021/07/04 08:35:53;;;;;;;5.90;5.43;;;26.50;90.60;;;;;;5075801;28;20845;-58
2021/07/04 08:38:19;;;;;;;6.33;5.10;;;26.30;91.10;;;;;;5076729;28;20942;-58
2021/07/04 08:40:44;;;;;;;5.60;5.20;;;26.10;91.30;;;;;;5076424;28;20595;-57
2021/07/04 08:43:22;;;;;;;5.77;5.27;;;26.10;91.80;;;;;;5078623;28;20714;-57
2021/07/04 08:45:48;;;;;;;5.17;4.77;;;25.90;92.20;;;;;;5077045;28;20299;-57
2021/07/04 08:48:13;;;;;;;5.90;5.40;;;26.70;92.10;;;;;;5074713;28;20884;-58
2021/07/04 08:50:39;;;;;;;5.83;5.40;;;28.20;87.90;;;;;;5079786;28;20194;-58
2021/07/04 08:53:05;;;;;;;5.77;5.00;;;27.90;85.70;;;;;;5081738;28;20192;-57
2021/07/04 08:55:30;;;;;;;6.00;5.50;;;27.20;88.90;;;;;;5075748;28;20210;-57
2021/07/04 08:57:59;;;;;;;5.23;4.70;;;27.60;88.90;;;;;;5076287;28;20218;-59
2021/07/04 09:00:27;;;;;;;5.30;4.90;;;27.50;88.10;;;;;;5076311;28;20257;-57
2021/07/04 09:02:53;;;;;;;5.97;4.53;;;27.30;88.50;;;;;;5084469;28;20487;-56
2021/07/04 09:05:20;;;;;;;6.13;5.67;;;26.70;89.40;;;;;;5079764;28;21001;-57
2021/07/04 09:07:46;;;;;;;4.70;4.40;;;26.30;90.60;;;;;;5078316;28;20439;-56
2021/07/04 09:10:15;;;;;;;5.17;4.73;;;26.50;90.30;;;;;;5077904;28;20452;-57
2021/07/04 09:12:45;;;;;;;5.10;4.70;;;26.60;89.60;;;;;;5079157;28;20485;-57
2021/07/04 09:15:13;;;;;;;5.63;5.00;;;26.60;89.80;;;;;;5078600;28;20454;-57
2021/07/04 09:17:41;;;;;;;4.37;4.07;;;26.60;90.10;;;;;;5080959;28;20525;-57
2021/07/04 09:20:11;;;;;;;4.10;3.80;;;26.40;90.20;;;;;;5079396;28;20508;-56
2021/07/04 09:22:42;;;;;;;4.37;4.07;;;26.50;87.20;;;;;;5079381;28;20970;-58
2021/07/04 09:25:37;;;;;;;5.20;4.80;;;26.50;87.20;;;;;;5078006;28;20437;-55
2021/07/04 09:28:18;;;;;;;4.60;4.30;;;26.40;87.30;;;;;;5063521;28;20464;-56
2021/07/04 09:30:47;;;;;;;5.00;4.60;;;26.20;89.20;;;;;;5072805;28;20450;-57
2021/07/04 09:33:32;;;;;;;5.10;4.70;;;26.10;90.00;;;;;;5082553;28;21007;-55
2021/07/04 09:36:04;;;;;;;4.83;4.37;;;26.00;89.90;;;;;;5089161;28;20529;-55
2021/07/04 09:38:35;;;;;;;4.97;4.57;;;25.90;90.10;;;;;;5077006;28;20614;-55
2021/07/04 09:41:02;;;;;;;5.00;4.60;;;25.90;90.10;;;;;;5075487;28;20438;-55
2021/07/04 09:43:29;;;;;;;5.13;4.73;;;25.70;90.80;;;;;;5075378;28;20445;-56
2021/07/04 09:45:57;;;;;;;4.50;4.20;;;25.80;90.90;;;;;;5080261;28;20446;-56
2021/07/04 09:48:35;;;;;;;5.97;4.40;;;26.20;89.50;;;;;;5076391;28;20560;-56
2021/07/04 09:51:10;;;;;;;4.37;4.07;;;26.30;89.20;;;;;;5074869;28;20507;-56
2021/07/04 09:53:54;;;;;;;4.50;4.20;;;26.30;88.80;;;;;;5075257;28;20793;-56
2021/07/04 09:56:24;;;;;;;4.70;4.40;;;26.60;88.10;;;;;;5079332;28;20471;-56
2021/07/04 09:58:52;;;;;;;4.10;3.80;;;26.70;87.70;;;;;;5080637;28;20498;-57
2021/07/04 10:01:30;;;;;;;4.30;4.00;;;27.20;87.10;;;;;;5079527;28;20538;-57
2021/07/04 10:03:56;;;;;;;4.33;4.03;;;27.70;84.10;;;;;;5075624;28;20448;-55
2021/07/04 10:06:21;;;;;;;3.93;3.63;;;28.80;80.70;;;;;;5074413;28;20457;-56
2021/07/04 10:08:47;;;;;;;4.13;3.83;;;29.60;77.10;;;;;;5074735;28;20316;-56
2021/07/04 10:11:16;;;;;;;4.00;3.70;;;30.20;75.10;;;;;;5077869;28;20181;-56
2021/07/04 10:13:44;;;;;;;4.17;3.87;;;30.50;73.00;;;;;;5075815;28;20199;-57
2021/07/04 10:16:12;;;;;;;4.60;4.30;;;30.40;73.60;;;;;;5075306;28;20465;-57
2021/07/04 10:18:44;;;;;;;4.47;4.17;;;30.50;73.10;;;;;;5076156;28;20827;-56
2021/07/04 10:21:10;;;;;;;4.40;4.00;;;30.00;72.60;;;;;;5082627;28;20453;-57
2021/07/04 10:23:36;;;;;;;4.47;4.17;;;29.30;75.70;;;;;;5075893;28;20513;-57
2021/07/04 10:26:03;;;;;;;4.30;4.00;;;28.90;76.70;;;;;;5074889;28;20809;-57
2021/07/04 10:28:33;;;;;;;5.10;3.90;;;28.60;77.00;;;;;;5077244;28;20468;-55
2021/07/04 10:31:02;;;;;;;4.67;4.20;;;28.60;77.00;;;;;;5079906;28;20436;-58
2021/07/04 10:33:34;;;;;;;4.60;4.30;;;28.40;76.30;;;;;;5077776;28;20442;-57
2021/07/04 10:36:08;;;;;;;4.40;4.10;;;28.00;77.50;;;;;;5080759;28;20463;-58
2021/07/04 10:38:57;;;;;;;5.20;4.00;;;27.90;78.60;;;;;;5073830;28;20451;-58
2021/07/04 10:41:34;;;;;;;4.23;3.70;;;27.50;80.10;;;;;;5076782;28;20435;-57
2021/07/04 10:44:10;;;;;;;4.27;3.97;;;27.40;80.30;;;;;;5086102;28;21046;-58
2021/07/04 10:46:45;;;;;;;4.23;3.83;;;27.40;80.40;;;;;;5077110;28;20435;-57
2021/07/04 10:49:39;;;;;;;4.07;3.80;;;27.20;81.80;;;;;;5077491;28;20538;-57
2021/07/04 10:52:13;;;;;;;3.80;3.50;;;27.10;80.50;;;;;;5074005;28;20435;-56
2021/07/04 10:54:44;;;;;;;4.00;3.70;;;26.90;80.40;;;;;;5074648;28;20974;-55
2021/07/04 10:57:09;;;;;;;4.87;4.43;;;26.70;81.80;;;;;;5074217;28;20576;-58
2021/07/04 11:00:00;;;;;;;4.10;3.80;;;26.70;83.10;;;;;;5074427;28;20542;-58
2021/07/04 11:02:48;;;;;;;4.40;4.10;;;26.50;84.10;;;;;;5076308;28;20635;-56
2021/07/04 11:05:40;;;;;;;4.67;4.37;;;26.30;85.40;;;;;;5079985;28;20540;-57
2021/07/04 11:08:13;;;;;;;4.70;4.30;;;26.20;85.80;;;;;;5057626;28;20465;-58
2021/07/04 11:10:39;;;;;;;4.73;4.33;;;25.90;86.50;;;;;;5073591;28;20532;-58
2021/07/04 11:13:08;;;;;;;5.30;3.97;;;26.00;87.40;;;;;;5071485;28;20537;-58
2021/07/04 11:15:38;;;;;;;4.40;4.10;;;26.00;86.50;;;;;;5077432;28;20212;-58
2021/07/04 11:18:09;;;;;;;4.70;4.40;;;26.10;86.20;;;;;;5077143;28;20848;-58
2021/07/04 11:20:44;;;;;;;4.17;3.77;;;26.20;86.30;;;;;;5075209;28;20942;-58
2021/07/04 11:23:16;;;;;;;4.70;4.40;;;25.90;87.10;;;;;;5081591;28;20451;-56
2021/07/04 11:25:45;;;;;;;5.00;4.60;;;26.10;86.10;;;;;;5073873;28;20536;-57
2021/07/04 11:28:17;;;;;;;3.97;3.70;;;26.30;85.70;;;;;;5078411;28;20472;-55
2021/07/04 11:30:51;;;;;;;4.47;4.17;;;26.40;85.70;;;;;;5081244;28;20472;-54
2021/07/04 11:33:35;;;;;;;4.53;4.20;;;26.50;85.60;;;;;;5079584;28;20483;-55
2021/07/04 11:36:07;;;;;;;4.70;4.30;;;26.60;85.70;;;;;;5071043;28;20528;-55
2021/07/04 11:38:35;;;;;;;4.53;4.23;;;26.80;86.20;;;;;;5083254;28;20514;-56
2021/07/04 11:41:02;;;;;;;5.30;4.80;;;26.90;85.40;;;;;;5075937;28;20446;-57
2021/07/04 11:43:29;;;;;;;3.83;3.57;;;26.80;84.90;;;;;;5081506;28;20502;-56
2021/07/04 11:45:59;;;;;;;4.93;4.53;;;26.60;84.60;;;;;;5073102;28;20442;-56
2021/07/04 11:48:44;;;;;;;4.50;4.10;;;26.70;85.50;;;;;;5075917;28;20523;-57
2021/07/04 11:51:12;;;;;;;4.77;4.43;;;26.30;85.10;;;;;;5087721;28;20466;-55
2021/07/04 11:53:48;;;;;;;4.53;4.13;;;26.30;86.80;;;;;;5084624;28;20461;-56
2021/07/04 11:56:14;;;;;;;4.13;3.83;;;26.50;86.50;;;;;;5081746;28;20468;-55
2021/07/04 11:58:40;;;;;;;4.93;4.60;;;26.40;84.80;;;;;;5080845;28;20519;-56
2021/07/04 12:01:19;;;;;;;4.57;4.27;;;26.20;85.60;;;;;;5075499;28;20503;-57
2021/07/04 12:03:53;;;;;;;5.40;4.90;;;26.10;86.20;;;;;;5081960;28;20437;-57
2021/07/04 12:06:19;;;;;;;4.63;4.33;;;25.80;87.90;;;;;;5082012;28;20943;-57
2021/07/04 12:08:56;;;;;;;4.50;4.17;;;25.90;88.10;;;;;;5082004;28;20477;-57
2021/07/04 12:11:42;;;;;;;5.00;4.50;;;26.00;87.80;;;;;;5087151;28;20816;-57
2021/07/04 12:14:38;;;;;;;4.40;4.10;;;26.00;86.30;;;;;;5086345;28;20455;-56
2021/07/04 12:17:30;;;;;;;4.97;4.57;;;26.00;87.40;;;;;;5084948;28;20452;-56
2021/07/04 12:19:57;;;;;;;4.60;4.20;;;25.90;88.10;;;;;;5075466;28;20460;-57
2021/07/04 12:22:29;;;;;;;11.67;10.57;;;26.00;88.50;;;;;;5084614;28;20598;-56
2021/07/04 12:24:56;;;;;;;5.53;5.03;;;26.00;88.20;;;;;;5080593;28;20476;-55
2021/07/04 12:27:46;;;;;;;4.93;4.50;;;26.10;89.00;;;;;;5080078;28;20441;-55
2021/07/04 12:30:12;;;;;;;4.67;4.33;;;26.20;87.90;;;;;;5082133;28;20453;-57
2021/07/04 12:32:41;;;;;;;5.40;4.90;;;26.30;87.10;;;;;;5078513;28;20441;-57
2021/07/04 12:35:16;;;;;;;3.93;3.63;;;26.10;87.00;;;;;;5086694;28;20468;-57
2021/07/04 12:37:41;;;;;;;4.83;4.47;;;26.20;86.20;;;;;;5074503;28;20440;-58
2021/07/04 12:40:19;;;;;;;7.17;4.47;;;26.50;86.30;;;;;;5081878;28;22557;-58
2021/07/04 12:42:45;;;;;;;5.20;4.70;;;26.70;85.10;;;;;;5083883;28;20271;-58
2021/07/04 12:45:12;;;;;;;4.60;4.30;;;26.90;84.50;;;;;;5083402;28;20637;-58
2021/07/04 12:47:38;;;;;;;4.83;4.43;;;27.00;82.20;;;;;;5083454;28;20597;-58
2021/07/04 12:50:07;;;;;;;4.93;4.53;;;27.00;81.50;;;;;;5081867;28;20477;-57
2021/07/04 12:52:33;;;;;;;3.67;3.37;;;26.90;80.90;;;;;;5085367;28;20475;-59